sensor_id;sensor_type;location;lat;lon;timestamp;P1;durP1;ratioP1;P2;durP2;ratioP2
51921;SDS011;37948;53.260;6.394;2022-12-18T00:01:38;71.30;;;30.15;;
51921;SDS011;37948;53.260;6.394;2022-12-18T00:04:04;66.75;;;27.77;;
51921;SDS011;37948;53.260;6.394;2022-12-18T00:06:33;70.10;;;27.60;;
51921;SDS011;37948;53.260;6.394;2022-12-18T00:08:59;67.85;;;27.77;;
51921;SDS011;37948;53.260;6.394;2022-12-18T00:11:27;68.10;;;28.55;;
51921;SDS011;37948;53.260;6.394;2022-12-18T00:13:56;71.68;;;29.35;;
51921;SDS011;37948;53.260;6.394;2022-12-18T00:16:23;65.35;;;28.38;;
51921;SDS011;37948;53.260;6.394;2022-12-18T00:18:50;71.85;;;28.73;;
51921;SDS011;37948;53.260;6.394;2022-12-18T00:21:18;68.13;;;27.00;;
51921;SDS011;37948;53.260;6.394;2022-12-18T00:23:45;70.95;;;27.92;;
51921;SDS011;37948;53.260;6.394;2022-12-18T00:26:34;61.47;;;26.02;;
51921;SDS011;37948;53.260;6.394;2022-12-18T00:29:00;68.15;;;27.80;;
51921;SDS011;37948;53.260;6.394;2022-12-18T00:31:27;68.43;;;27.23;;
51921;SDS011;37948;53.260;6.394;2022-12-18T00:33:53;69.80;;;27.85;;
51921;SDS011;37948;53.260;6.394;2022-12-18T00:36:22;68.00;;;27.20;;
51921;SDS011;37948;53.260;6.394;2022-12-18T00:38:49;68.80;;;27.60;;
51921;SDS011;37948;53.260;6.394;2022-12-18T00:41:16;71.65;;;28.10;;
51921;SDS011;37948;53.260;6.394;2022-12-18T00:44:03;67.15;;;26.80;;
51921;SDS011;37948;53.260;6.394;2022-12-18T00:46:29;69.88;;;27.50;;
51921;SDS011;37948;53.260;6.394;2022-12-18T00:48:55;63.15;;;27.17;;
51921;SDS011;37948;53.260;6.394;2022-12-18T00:51:22;67.95;;;27.65;;
51921;SDS011;37948;53.260;6.394;2022-12-18T00:53:48;69.03;;;26.75;;
51921;SDS011;37948;53.260;6.394;2022-12-18T00:56:14;72.85;;;27.67;;
51921;SDS011;37948;53.260;6.394;2022-12-18T00:58:39;70.05;;;27.58;;
51921;SDS011;37948;53.260;6.394;2022-12-18T01:01:05;68.28;;;26.95;;
51921;SDS011;37948;53.260;6.394;2022-12-18T01:03:31;68.65;;;27.00;;
51921;SDS011;37948;53.260;6.394;2022-12-18T01:05:56;65.78;;;26.95;;
51921;SDS011;37948;53.260;6.394;2022-12-18T01:08:22;69.18;;;27.25;;
51921;SDS011;37948;53.260;6.394;2022-12-18T01:10:48;65.97;;;26.65;;
51921;SDS011;37948;53.260;6.394;2022-12-18T01:13:13;66.00;;;27.75;;
51921;SDS011;37948;53.260;6.394;2022-12-18T01:15:39;66.30;;;24.33;;
51921;SDS011;37948;53.260;6.394;2022-12-18T01:18:05;65.43;;;25.15;;
51921;SDS011;37948;53.260;6.394;2022-12-18T01:20:31;59.30;;;26.42;;
51921;SDS011;37948;53.260;6.394;2022-12-18T01:22:56;58.35;;;25.20;;
51921;SDS011;37948;53.260;6.394;2022-12-18T01:25:22;63.70;;;26.05;;
51921;SDS011;37948;53.260;6.394;2022-12-18T01:27:48;66.63;;;28.00;;
51921;SDS011;37948;53.260;6.394;2022-12-18T01:30:13;57.47;;;24.60;;
51921;SDS011;37948;53.260;6.394;2022-12-18T01:32:39;64.05;;;25.58;;
51921;SDS011;37948;53.260;6.394;2022-12-18T01:35:04;69.20;;;27.15;;
51921;SDS011;37948;53.260;6.394;2022-12-18T01:37:30;61.25;;;26.25;;
51921;SDS011;37948;53.260;6.394;2022-12-18T01:39:56;69.22;;;28.20;;
51921;SDS011;37948;53.260;6.394;2022-12-18T01:42:22;63.47;;;27.88;;
51921;SDS011;37948;53.260;6.394;2022-12-18T01:47:33;69.25;;;24.95;;
51921;SDS011;37948;53.260;6.394;2022-12-18T01:50:10;62.45;;;25.65;;
51921;SDS011;37948;53.260;6.394;2022-12-18T01:53:00;67.72;;;26.30;;
51921;SDS011;37948;53.260;6.394;2022-12-18T01:55:31;68.10;;;25.73;;
51921;SDS011;37948;53.260;6.394;2022-12-18T01:58:32;63.13;;;25.27;;
51921;SDS011;37948;53.260;6.394;2022-12-18T02:01:09;61.92;;;24.83;;
51921;SDS011;37948;53.260;6.394;2022-12-18T02:03:36;68.55;;;26.90;;
51921;SDS011;37948;53.260;6.394;2022-12-18T02:06:19;65.70;;;24.58;;
51921;SDS011;37948;53.260;6.394;2022-12-18T02:09:11;57.38;;;22.58;;
51921;SDS011;37948;53.260;6.394;2022-12-18T02:14:37;59.72;;;24.05;;
51921;SDS011;37948;53.260;6.394;2022-12-18T02:17:11;52.85;;;23.13;;
51921;SDS011;37948;53.260;6.394;2022-12-18T02:22:37;59.17;;;24.02;;
51921;SDS011;37948;53.260;6.394;2022-12-18T02:25:34;58.33;;;23.52;;
51921;SDS011;37948;53.260;6.394;2022-12-18T02:28:23;56.85;;;22.77;;
51921;SDS011;37948;53.260;6.394;2022-12-18T02:30:53;59.50;;;23.95;;
51921;SDS011;37948;53.260;6.394;2022-12-18T02:33:24;62.70;;;23.77;;
51921;SDS011;37948;53.260;6.394;2022-12-18T02:35:51;54.08;;;23.45;;
51921;SDS011;37948;53.260;6.394;2022-12-18T02:38:19;57.65;;;23.02;;
51921;SDS011;37948;53.260;6.394;2022-12-18T02:40:45;62.55;;;25.27;;
51921;SDS011;37948;53.260;6.394;2022-12-18T02:43:13;55.75;;;24.08;;
51921;SDS011;37948;53.260;6.394;2022-12-18T02:45:50;62.38;;;24.40;;
51921;SDS011;37948;53.260;6.394;2022-12-18T02:48:22;58.90;;;22.92;;
51921;SDS011;37948;53.260;6.394;2022-12-18T02:53:27;63.47;;;24.77;;
51921;SDS011;37948;53.260;6.394;2022-12-18T02:58:54;62.70;;;25.67;;
51921;SDS011;37948;53.260;6.394;2022-12-18T03:01:24;57.17;;;23.60;;
51921;SDS011;37948;53.260;6.394;2022-12-18T03:04:34;54.50;;;22.80;;
51921;SDS011;37948;53.260;6.394;2022-12-18T03:06:54;62.00;;;24.08;;
51921;SDS011;37948;53.260;6.394;2022-12-18T03:09:24;59.50;;;24.73;;
51921;SDS011;37948;53.260;6.394;2022-12-18T03:11:56;62.80;;;22.88;;
51921;SDS011;37948;53.260;6.394;2022-12-18T03:14:47;58.63;;;24.13;;
51921;SDS011;37948;53.260;6.394;2022-12-18T03:17:30;62.25;;;24.60;;
51921;SDS011;37948;53.260;6.394;2022-12-18T03:19:58;63.42;;;24.65;;
51921;SDS011;37948;53.260;6.394;2022-12-18T03:22:32;62.65;;;23.75;;
51921;SDS011;37948;53.260;6.394;2022-12-18T03:25:00;61.90;;;24.00;;
51921;SDS011;37948;53.260;6.394;2022-12-18T03:27:29;55.78;;;23.35;;
51921;SDS011;37948;53.260;6.394;2022-12-18T03:30:00;55.08;;;23.77;;
51921;SDS011;37948;53.260;6.394;2022-12-18T03:32:33;57.92;;;23.67;;
51921;SDS011;37948;53.260;6.394;2022-12-18T03:35:26;61.17;;;24.98;;
51921;SDS011;37948;53.260;6.394;2022-12-18T03:37:56;61.60;;;25.95;;
51921;SDS011;37948;53.260;6.394;2022-12-18T03:40:23;61.28;;;24.63;;
51921;SDS011;37948;53.260;6.394;2022-12-18T03:43:03;59.80;;;25.77;;
51921;SDS011;37948;53.260;6.394;2022-12-18T03:45:37;63.50;;;26.67;;
51921;SDS011;37948;53.260;6.394;2022-12-18T03:48:08;67.00;;;25.83;;
51921;SDS011;37948;53.260;6.394;2022-12-18T03:56:15;66.63;;;26.65;;
51921;SDS011;37948;53.260;6.394;2022-12-18T03:58:42;65.05;;;24.75;;
51921;SDS011;37948;53.260;6.394;2022-12-18T04:01:10;58.22;;;24.77;;
51921;SDS011;37948;53.260;6.394;2022-12-18T04:03:39;60.72;;;26.13;;
51921;SDS011;37948;53.260;6.394;2022-12-18T04:06:07;65.70;;;27.77;;
51921;SDS011;37948;53.260;6.394;2022-12-18T04:08:33;62.00;;;25.95;;
51921;SDS011;37948;53.260;6.394;2022-12-18T04:11:00;57.42;;;25.05;;
51921;SDS011;37948;53.260;6.394;2022-12-18T04:13:32;66.38;;;27.92;;
51921;SDS011;37948;53.260;6.394;2022-12-18T04:16:00;58.80;;;24.45;;
51921;SDS011;37948;53.260;6.394;2022-12-18T04:18:26;64.25;;;26.00;;
51921;SDS011;37948;53.260;6.394;2022-12-18T04:20:51;63.22;;;25.35;;
51921;SDS011;37948;53.260;6.394;2022-12-18T04:23:17;55.88;;;24.38;;
51921;SDS011;37948;53.260;6.394;2022-12-18T04:25:43;60.92;;;26.50;;
51921;SDS011;37948;53.260;6.394;2022-12-18T04:28:08;65.25;;;25.30;;
51921;SDS011;37948;53.260;6.394;2022-12-18T04:30:34;56.67;;;24.38;;
51921;SDS011;37948;53.260;6.394;2022-12-18T04:32:59;60.35;;;25.55;;
51921;SDS011;37948;53.260;6.394;2022-12-18T04:35:25;63.53;;;26.38;;
51921;SDS011;37948;53.260;6.394;2022-12-18T04:37:51;59.92;;;24.23;;
51921;SDS011;37948;53.260;6.394;2022-12-18T04:40:16;60.88;;;24.85;;
51921;SDS011;37948;53.260;6.394;2022-12-18T04:42:42;69.40;;;26.58;;
51921;SDS011;37948;53.260;6.394;2022-12-18T04:45:08;59.25;;;24.85;;
51921;SDS011;37948;53.260;6.394;2022-12-18T04:47:34;55.35;;;22.67;;
51921;SDS011;37948;53.260;6.394;2022-12-18T04:49:59;59.60;;;25.35;;
51921;SDS011;37948;53.260;6.394;2022-12-18T04:52:25;57.85;;;24.23;;
51921;SDS011;37948;53.260;6.394;2022-12-18T04:54:50;59.63;;;24.25;;
51921;SDS011;37948;53.260;6.394;2022-12-18T04:57:16;55.60;;;23.73;;
51921;SDS011;37948;53.260;6.394;2022-12-18T04:59:43;51.92;;;23.50;;
51921;SDS011;37948;53.260;6.394;2022-12-18T05:02:09;61.17;;;23.70;;
51921;SDS011;37948;53.260;6.394;2022-12-18T05:04:34;58.05;;;23.38;;
51921;SDS011;37948;53.260;6.394;2022-12-18T05:07:00;62.63;;;24.33;;
51921;SDS011;37948;53.260;6.394;2022-12-18T05:09:25;51.58;;;22.65;;
51921;SDS011;37948;53.260;6.394;2022-12-18T05:11:51;58.08;;;24.17;;
51921;SDS011;37948;53.260;6.394;2022-12-18T05:14:17;50.50;;;22.17;;
51921;SDS011;37948;53.260;6.394;2022-12-18T05:16:42;54.95;;;23.58;;
51921;SDS011;37948;53.260;6.394;2022-12-18T05:19:08;55.45;;;22.38;;
51921;SDS011;37948;53.260;6.394;2022-12-18T05:21:33;60.67;;;22.77;;
51921;SDS011;37948;53.260;6.394;2022-12-18T05:23:59;52.75;;;22.70;;
51921;SDS011;37948;53.260;6.394;2022-12-18T05:26:24;53.85;;;23.30;;
51921;SDS011;37948;53.260;6.394;2022-12-18T05:28:50;52.20;;;21.85;;
51921;SDS011;37948;53.260;6.394;2022-12-18T05:31:16;53.75;;;22.17;;
51921;SDS011;37948;53.260;6.394;2022-12-18T05:33:41;51.50;;;21.98;;
51921;SDS011;37948;53.260;6.394;2022-12-18T05:36:07;52.83;;;21.60;;
51921;SDS011;37948;53.260;6.394;2022-12-18T05:38:34;57.72;;;22.50;;
51921;SDS011;37948;53.260;6.394;2022-12-18T05:41:02;54.17;;;22.35;;
51921;SDS011;37948;53.260;6.394;2022-12-18T05:43:28;60.70;;;23.80;;
51921;SDS011;37948;53.260;6.394;2022-12-18T05:45:54;55.40;;;22.20;;
51921;SDS011;37948;53.260;6.394;2022-12-18T05:48:22;52.03;;;21.60;;
51921;SDS011;37948;53.260;6.394;2022-12-18T05:50:48;53.85;;;22.65;;
51921;SDS011;37948;53.260;6.394;2022-12-18T05:53:16;51.03;;;22.08;;
51921;SDS011;37948;53.260;6.394;2022-12-18T05:55:44;51.88;;;22.05;;
51921;SDS011;37948;53.260;6.394;2022-12-18T05:58:10;54.30;;;22.60;;
51921;SDS011;37948;53.260;6.394;2022-12-18T06:00:37;53.05;;;21.10;;
51921;SDS011;37948;53.260;6.394;2022-12-18T06:03:05;54.28;;;24.02;;
51921;SDS011;37948;53.260;6.394;2022-12-18T06:05:38;52.75;;;21.73;;
51921;SDS011;37948;53.260;6.394;2022-12-18T06:08:05;58.50;;;22.15;;
51921;SDS011;37948;53.260;6.394;2022-12-18T06:10:30;52.83;;;21.30;;
51921;SDS011;37948;53.260;6.394;2022-12-18T06:12:57;51.22;;;20.25;;
51921;SDS011;37948;53.260;6.394;2022-12-18T06:15:22;54.20;;;22.30;;
51921;SDS011;37948;53.260;6.394;2022-12-18T06:17:48;54.97;;;21.52;;
51921;SDS011;37948;53.260;6.394;2022-12-18T06:20:14;53.95;;;21.42;;
51921;SDS011;37948;53.260;6.394;2022-12-18T06:22:40;47.50;;;19.90;;
51921;SDS011;37948;53.260;6.394;2022-12-18T06:25:05;50.20;;;21.13;;
51921;SDS011;37948;53.260;6.394;2022-12-18T06:27:32;48.97;;;20.23;;
51921;SDS011;37948;53.260;6.394;2022-12-18T06:29:58;44.22;;;18.40;;
51921;SDS011;37948;53.260;6.394;2022-12-18T06:32:24;51.38;;;20.48;;
51921;SDS011;37948;53.260;6.394;2022-12-18T06:34:50;53.72;;;20.65;;
51921;SDS011;37948;53.260;6.394;2022-12-18T06:37:16;49.95;;;21.83;;
51921;SDS011;37948;53.260;6.394;2022-12-18T06:39:41;46.25;;;18.73;;
51921;SDS011;37948;53.260;6.394;2022-12-18T06:42:07;46.58;;;19.98;;
51921;SDS011;37948;53.260;6.394;2022-12-18T06:44:32;52.10;;;20.85;;
51921;SDS011;37948;53.260;6.394;2022-12-18T06:46:58;47.63;;;20.92;;
51921;SDS011;37948;53.260;6.394;2022-12-18T06:49:23;48.78;;;20.55;;
51921;SDS011;37948;53.260;6.394;2022-12-18T06:51:49;43.88;;;19.63;;
51921;SDS011;37948;53.260;6.394;2022-12-18T06:54:15;46.92;;;19.63;;
51921;SDS011;37948;53.260;6.394;2022-12-18T06:56:40;46.25;;;19.30;;
51921;SDS011;37948;53.260;6.394;2022-12-18T06:59:06;52.03;;;20.02;;
51921;SDS011;37948;53.260;6.394;2022-12-18T07:01:31;51.55;;;19.88;;
51921;SDS011;37948;53.260;6.394;2022-12-18T07:03:57;49.40;;;20.13;;
51921;SDS011;37948;53.260;6.394;2022-12-18T07:06:23;49.50;;;21.20;;
51921;SDS011;37948;53.260;6.394;2022-12-18T07:08:51;53.13;;;20.40;;
51921;SDS011;37948;53.260;6.394;2022-12-18T07:11:19;48.45;;;19.63;;
51921;SDS011;37948;53.260;6.394;2022-12-18T07:13:45;47.30;;;20.02;;
51921;SDS011;37948;53.260;6.394;2022-12-18T07:16:12;45.78;;;19.33;;
51921;SDS011;37948;53.260;6.394;2022-12-18T07:18:40;48.55;;;19.40;;
51921;SDS011;37948;53.260;6.394;2022-12-18T07:21:06;43.47;;;18.63;;
51921;SDS011;37948;53.260;6.394;2022-12-18T07:23:34;45.53;;;19.63;;
51921;SDS011;37948;53.260;6.394;2022-12-18T07:26:01;45.67;;;19.25;;
51921;SDS011;37948;53.260;6.394;2022-12-18T07:28:31;41.78;;;18.75;;
51921;SDS011;37948;53.260;6.394;2022-12-18T07:30:57;43.15;;;18.98;;
51921;SDS011;37948;53.260;6.394;2022-12-18T07:33:27;41.15;;;18.00;;
51921;SDS011;37948;53.260;6.394;2022-12-18T07:35:52;41.75;;;18.48;;
51921;SDS011;37948;53.260;6.394;2022-12-18T07:38:18;41.42;;;18.75;;
51921;SDS011;37948;53.260;6.394;2022-12-18T07:40:43;40.95;;;18.15;;
51921;SDS011;37948;53.260;6.394;2022-12-18T07:43:09;34.88;;;17.23;;
51921;SDS011;37948;53.260;6.394;2022-12-18T07:45:34;37.42;;;17.83;;
51921;SDS011;37948;53.260;6.394;2022-12-18T07:48:00;37.05;;;16.98;;
51921;SDS011;37948;53.260;6.394;2022-12-18T07:50:25;43.03;;;18.92;;
51921;SDS011;37948;53.260;6.394;2022-12-18T07:52:51;43.33;;;17.95;;
51921;SDS011;37948;53.260;6.394;2022-12-18T07:55:16;37.35;;;16.90;;
51921;SDS011;37948;53.260;6.394;2022-12-18T07:57:42;40.65;;;18.15;;
51921;SDS011;37948;53.260;6.394;2022-12-18T08:00:08;38.67;;;17.63;;
51921;SDS011;37948;53.260;6.394;2022-12-18T08:02:34;37.08;;;17.42;;
51921;SDS011;37948;53.260;6.394;2022-12-18T08:04:59;33.88;;;16.98;;
51921;SDS011;37948;53.260;6.394;2022-12-18T08:07:25;37.80;;;16.75;;
51921;SDS011;37948;53.260;6.394;2022-12-18T08:09:51;35.47;;;17.10;;
51921;SDS011;37948;53.260;6.394;2022-12-18T08:12:16;37.70;;;16.92;;
51921;SDS011;37948;53.260;6.394;2022-12-18T08:14:42;35.25;;;16.23;;
51921;SDS011;37948;53.260;6.394;2022-12-18T08:17:07;35.75;;;17.05;;
51921;SDS011;37948;53.260;6.394;2022-12-18T08:19:33;34.25;;;17.45;;
51921;SDS011;37948;53.260;6.394;2022-12-18T08:21:58;36.88;;;17.80;;
51921;SDS011;37948;53.260;6.394;2022-12-18T08:24:24;36.83;;;17.38;;
51921;SDS011;37948;53.260;6.394;2022-12-18T08:26:50;34.90;;;17.60;;
51921;SDS011;37948;53.260;6.394;2022-12-18T08:29:16;38.13;;;17.25;;
51921;SDS011;37948;53.260;6.394;2022-12-18T08:31:42;39.00;;;17.02;;
51921;SDS011;37948;53.260;6.394;2022-12-18T08:34:07;36.58;;;17.27;;
51921;SDS011;37948;53.260;6.394;2022-12-18T08:36:33;37.00;;;18.02;;
51921;SDS011;37948;53.260;6.394;2022-12-18T08:38:59;40.78;;;16.92;;
51921;SDS011;37948;53.260;6.394;2022-12-18T08:41:24;37.35;;;17.38;;
51921;SDS011;37948;53.260;6.394;2022-12-18T08:43:50;30.08;;;16.75;;
51921;SDS011;37948;53.260;6.394;2022-12-18T08:46:35;35.13;;;16.45;;
51921;SDS011;37948;53.260;6.394;2022-12-18T08:49:05;34.50;;;17.35;;
51921;SDS011;37948;53.260;6.394;2022-12-18T08:51:32;29.80;;;16.58;;
51921;SDS011;37948;53.260;6.394;2022-12-18T08:53:58;39.30;;;17.00;;
51921;SDS011;37948;53.260;6.394;2022-12-18T08:56:23;30.45;;;15.90;;
51921;SDS011;37948;53.260;6.394;2022-12-18T08:58:53;36.85;;;17.98;;
51921;SDS011;37948;53.260;6.394;2022-12-18T09:01:19;36.67;;;17.20;;
51921;SDS011;37948;53.260;6.394;2022-12-18T09:03:45;34.42;;;17.35;;
51921;SDS011;37948;53.260;6.394;2022-12-18T09:06:13;33.33;;;17.38;;
51921;SDS011;37948;53.260;6.394;2022-12-18T09:08:40;27.85;;;15.68;;
51921;SDS011;37948;53.260;6.394;2022-12-18T09:11:11;37.03;;;18.08;;
51921;SDS011;37948;53.260;6.394;2022-12-18T09:13:43;33.92;;;16.80;;
51921;SDS011;37948;53.260;6.394;2022-12-18T09:16:09;31.95;;;17.60;;
51921;SDS011;37948;53.260;6.394;2022-12-18T09:18:34;33.45;;;16.30;;
51921;SDS011;37948;53.260;6.394;2022-12-18T09:21:06;29.42;;;15.88;;
51921;SDS011;37948;53.260;6.394;2022-12-18T09:23:33;31.20;;;15.63;;
51921;SDS011;37948;53.260;6.394;2022-12-18T09:25:59;30.30;;;15.70;;
51921;SDS011;37948;53.260;6.394;2022-12-18T09:28:26;36.80;;;16.13;;
51921;SDS011;37948;53.260;6.394;2022-12-18T09:30:52;29.95;;;16.70;;
51921;SDS011;37948;53.260;6.394;2022-12-18T09:33:17;35.65;;;17.13;;
51921;SDS011;37948;53.260;6.394;2022-12-18T09:35:43;26.67;;;15.10;;
51921;SDS011;37948;53.260;6.394;2022-12-18T09:38:14;35.15;;;15.88;;
51921;SDS011;37948;53.260;6.394;2022-12-18T09:40:43;30.48;;;15.77;;
51921;SDS011;37948;53.260;6.394;2022-12-18T09:43:17;30.23;;;16.00;;
51921;SDS011;37948;53.260;6.394;2022-12-18T09:45:53;25.77;;;14.82;;
51921;SDS011;37948;53.260;6.394;2022-12-18T09:48:58;27.63;;;15.30;;
51921;SDS011;37948;53.260;6.394;2022-12-18T09:51:19;27.77;;;14.43;;
51921;SDS011;37948;53.260;6.394;2022-12-18T09:53:53;28.00;;;14.57;;
51921;SDS011;37948;53.260;6.394;2022-12-18T09:56:21;24.40;;;13.45;;
51921;SDS011;37948;53.260;6.394;2022-12-18T09:58:54;27.98;;;15.68;;
51921;SDS011;37948;53.260;6.394;2022-12-18T10:01:27;25.63;;;13.60;;
51921;SDS011;37948;53.260;6.394;2022-12-18T10:03:53;27.55;;;14.43;;
51921;SDS011;37948;53.260;6.394;2022-12-18T10:06:39;24.45;;;13.82;;
51921;SDS011;37948;53.260;6.394;2022-12-18T10:20:32;24.98;;;14.30;;
51921;SDS011;37948;53.260;6.394;2022-12-18T10:26:03;23.80;;;13.57;;
51921;SDS011;37948;53.260;6.394;2022-12-18T10:28:35;26.13;;;13.75;;
51921;SDS011;37948;53.260;6.394;2022-12-18T10:31:05;20.40;;;12.82;;
51921;SDS011;37948;53.260;6.394;2022-12-18T10:33:32;24.00;;;13.20;;
51921;SDS011;37948;53.260;6.394;2022-12-18T10:35:58;23.85;;;13.05;;
51921;SDS011;37948;53.260;6.394;2022-12-18T10:40:53;21.70;;;12.40;;
51921;SDS011;37948;53.260;6.394;2022-12-18T10:43:28;21.38;;;12.35;;
51921;SDS011;37948;53.260;6.394;2022-12-18T10:48:25;23.55;;;13.05;;
51921;SDS011;37948;53.260;6.394;2022-12-18T10:50:52;22.23;;;12.82;;
51921;SDS011;37948;53.260;6.394;2022-12-18T10:53:19;21.90;;;12.15;;
51921;SDS011;37948;53.260;6.394;2022-12-18T10:55:49;24.58;;;12.82;;
51921;SDS011;37948;53.260;6.394;2022-12-18T10:58:26;22.15;;;13.18;;
51921;SDS011;37948;53.260;6.394;2022-12-18T11:03:40;18.13;;;11.85;;
51921;SDS011;37948;53.260;6.394;2022-12-18T11:08:42;19.23;;;12.10;;
51921;SDS011;37948;53.260;6.394;2022-12-18T11:11:22;19.00;;;12.20;;
51921;SDS011;37948;53.260;6.394;2022-12-18T11:13:55;18.27;;;11.25;;
51921;SDS011;37948;53.260;6.394;2022-12-18T11:16:25;20.40;;;10.65;;
51921;SDS011;37948;53.260;6.394;2022-12-18T11:18:52;19.90;;;11.20;;
51921;SDS011;37948;53.260;6.394;2022-12-18T11:21:18;17.95;;;10.63;;
51921;SDS011;37948;53.260;6.394;2022-12-18T11:23:48;18.08;;;11.70;;
51921;SDS011;37948;53.260;6.394;2022-12-18T11:26:16;15.98;;;10.77;;
51921;SDS011;37948;53.260;6.394;2022-12-18T11:31:31;16.08;;;11.35;;
51921;SDS011;37948;53.260;6.394;2022-12-18T11:34:11;17.85;;;9.65;;
51921;SDS011;37948;53.260;6.394;2022-12-18T11:36:46;13.20;;;9.13;;
51921;SDS011;37948;53.260;6.394;2022-12-18T11:44:57;14.73;;;8.40;;
51921;SDS011;37948;53.260;6.394;2022-12-18T11:47:44;9.70;;;7.22;;
51921;SDS011;37948;53.260;6.394;2022-12-18T11:50:50;12.07;;;7.43;;
51921;SDS011;37948;53.260;6.394;2022-12-18T11:53:18;13.38;;;7.93;;
51921;SDS011;37948;53.260;6.394;2022-12-18T11:55:54;13.02;;;7.75;;
51921;SDS011;37948;53.260;6.394;2022-12-18T12:01:02;13.77;;;7.88;;
51921;SDS011;37948;53.260;6.394;2022-12-18T12:11:50;10.43;;;6.40;;
51921;SDS011;37948;53.260;6.394;2022-12-18T12:21:00;10.55;;;6.68;;
51921;SDS011;37948;53.260;6.394;2022-12-18T12:29:31;9.85;;;6.75;;
51921;SDS011;37948;53.260;6.394;2022-12-18T12:32:10;8.63;;;6.53;;
51921;SDS011;37948;53.260;6.394;2022-12-18T12:34:58;11.88;;;7.30;;
51921;SDS011;37948;53.260;6.394;2022-12-18T12:40:13;11.77;;;6.45;;
51921;SDS011;37948;53.260;6.394;2022-12-18T12:42:45;10.00;;;6.30;;
51921;SDS011;37948;53.260;6.394;2022-12-18T12:45:37;8.68;;;6.18;;
51921;SDS011;37948;53.260;6.394;2022-12-18T12:48:14;12.15;;;6.05;;
51921;SDS011;37948;53.260;6.394;2022-12-18T12:50:45;9.27;;;6.43;;
51921;SDS011;37948;53.260;6.394;2022-12-18T12:53:15;8.35;;;5.97;;
51921;SDS011;37948;53.260;6.394;2022-12-18T12:55:54;8.05;;;5.57;;
51921;SDS011;37948;53.260;6.394;2022-12-18T12:58:36;9.20;;;5.82;;
51921;SDS011;37948;53.260;6.394;2022-12-18T13:01:23;10.15;;;6.68;;
51921;SDS011;37948;53.260;6.394;2022-12-18T13:06:43;9.60;;;6.20;;
51921;SDS011;37948;53.260;6.394;2022-12-18T13:09:30;9.38;;;6.63;;
51921;SDS011;37948;53.260;6.394;2022-12-18T13:12:01;10.10;;;6.28;;
51921;SDS011;37948;53.260;6.394;2022-12-18T13:14:47;9.70;;;6.25;;
51921;SDS011;37948;53.260;6.394;2022-12-18T13:19:47;7.97;;;5.90;;
51921;SDS011;37948;53.260;6.394;2022-12-18T13:22:22;9.32;;;6.20;;
51921;SDS011;37948;53.260;6.394;2022-12-18T13:24:50;10.60;;;5.65;;
51921;SDS011;37948;53.260;6.394;2022-12-18T13:28:01;8.88;;;5.55;;
51921;SDS011;37948;53.260;6.394;2022-12-18T13:35:42;10.88;;;5.68;;
51921;SDS011;37948;53.260;6.394;2022-12-18T13:38:22;11.13;;;5.53;;
51921;SDS011;37948;53.260;6.394;2022-12-18T13:46:04;9.77;;;5.70;;
51921;SDS011;37948;53.260;6.394;2022-12-18T13:48:52;10.02;;;6.00;;
51921;SDS011;37948;53.260;6.394;2022-12-18T13:51:21;7.43;;;5.38;;
51921;SDS011;37948;53.260;6.394;2022-12-18T13:53:49;10.93;;;5.25;;
51921;SDS011;37948;53.260;6.394;2022-12-18T13:56:21;7.75;;;5.70;;
51921;SDS011;37948;53.260;6.394;2022-12-18T13:59:03;7.45;;;5.03;;
51921;SDS011;37948;53.260;6.394;2022-12-18T14:06:47;7.55;;;4.95;;
51921;SDS011;37948;53.260;6.394;2022-12-18T14:09:17;7.35;;;5.38;;
51921;SDS011;37948;53.260;6.394;2022-12-18T14:11:50;11.43;;;5.28;;
51921;SDS011;37948;53.260;6.394;2022-12-18T14:14:17;7.88;;;5.60;;
51921;SDS011;37948;53.260;6.394;2022-12-18T14:16:44;7.43;;;4.68;;
51921;SDS011;37948;53.260;6.394;2022-12-18T14:19:15;7.68;;;5.43;;
51921;SDS011;37948;53.260;6.394;2022-12-18T14:21:49;7.68;;;5.30;;
51921;SDS011;37948;53.260;6.394;2022-12-18T14:26:46;7.10;;;5.22;;
51921;SDS011;37948;53.260;6.394;2022-12-18T14:29:29;8.35;;;5.25;;
51921;SDS011;37948;53.260;6.394;2022-12-18T14:34:57;9.52;;;5.72;;
51921;SDS011;37948;53.260;6.394;2022-12-18T14:37:24;7.35;;;5.15;;
51921;SDS011;37948;53.260;6.394;2022-12-18T14:42:24;9.13;;;6.55;;
51921;SDS011;37948;53.260;6.394;2022-12-18T14:45:31;11.55;;;6.05;;
51921;SDS011;37948;53.260;6.394;2022-12-18T14:47:57;9.15;;;5.97;;
51921;SDS011;37948;53.260;6.394;2022-12-18T14:50:23;9.07;;;5.88;;
51921;SDS011;37948;53.260;6.394;2022-12-18T14:52:49;13.60;;;6.40;;
51921;SDS011;37948;53.260;6.394;2022-12-18T14:55:19;10.15;;;6.82;;
51921;SDS011;37948;53.260;6.394;2022-12-18T14:57:49;10.57;;;6.07;;
51921;SDS011;37948;53.260;6.394;2022-12-18T15:00:18;10.93;;;5.80;;
51921;SDS011;37948;53.260;6.394;2022-12-18T15:02:46;8.55;;;6.22;;
51921;SDS011;37948;53.260;6.394;2022-12-18T15:05:17;9.52;;;6.07;;
51921;SDS011;37948;53.260;6.394;2022-12-18T15:07:50;8.90;;;6.38;;
51921;SDS011;37948;53.260;6.394;2022-12-18T15:10:28;8.35;;;6.53;;
51921;SDS011;37948;53.260;6.394;2022-12-18T15:20:38;10.13;;;7.13;;
51921;SDS011;37948;53.260;6.394;2022-12-18T15:23:16;12.63;;;6.63;;
51921;SDS011;37948;53.260;6.394;2022-12-18T15:25:42;12.20;;;7.82;;
51921;SDS011;37948;53.260;6.394;2022-12-18T15:28:29;11.30;;;6.53;;
51921;SDS011;37948;53.260;6.394;2022-12-18T15:31:03;9.55;;;6.78;;
51921;SDS011;37948;53.260;6.394;2022-12-18T15:33:37;11.02;;;7.30;;
51921;SDS011;37948;53.260;6.394;2022-12-18T15:36:07;13.70;;;7.38;;
51921;SDS011;37948;53.260;6.394;2022-12-18T15:38:34;10.95;;;7.40;;
51921;SDS011;37948;53.260;6.394;2022-12-18T15:41:00;10.05;;;6.97;;
51921;SDS011;37948;53.260;6.394;2022-12-18T15:43:27;12.85;;;7.50;;
51921;SDS011;37948;53.260;6.394;2022-12-18T15:46:03;11.52;;;7.18;;
51921;SDS011;37948;53.260;6.394;2022-12-18T15:48:53;14.15;;;8.43;;
51921;SDS011;37948;53.260;6.394;2022-12-18T15:51:27;11.88;;;7.70;;
51921;SDS011;37948;53.260;6.394;2022-12-18T15:54:02;11.35;;;7.47;;
51921;SDS011;37948;53.260;6.394;2022-12-18T15:56:31;11.73;;;7.80;;
51921;SDS011;37948;53.260;6.394;2022-12-18T15:59:19;13.60;;;8.40;;
51921;SDS011;37948;53.260;6.394;2022-12-18T16:01:46;11.77;;;7.72;;
51921;SDS011;37948;53.260;6.394;2022-12-18T16:04:14;13.13;;;8.32;;
51921;SDS011;37948;53.260;6.394;2022-12-18T16:06:41;11.75;;;7.63;;
51921;SDS011;37948;53.260;6.394;2022-12-18T16:09:07;11.77;;;7.63;;
51921;SDS011;37948;53.260;6.394;2022-12-18T16:11:34;12.68;;;8.63;;
51921;SDS011;37948;53.260;6.394;2022-12-18T16:16:36;12.45;;;8.80;;
51921;SDS011;37948;53.260;6.394;2022-12-18T16:19:02;13.05;;;8.10;;
51921;SDS011;37948;53.260;6.394;2022-12-18T16:21:27;12.77;;;8.15;;
51921;SDS011;37948;53.260;6.394;2022-12-18T16:23:53;14.25;;;8.07;;
51921;SDS011;37948;53.260;6.394;2022-12-18T16:26:18;10.88;;;7.85;;
51921;SDS011;37948;53.260;6.394;2022-12-18T16:28:44;13.77;;;8.23;;
51921;SDS011;37948;53.260;6.394;2022-12-18T16:31:09;12.73;;;8.50;;
51921;SDS011;37948;53.260;6.394;2022-12-18T16:33:35;13.80;;;8.65;;
51921;SDS011;37948;53.260;6.394;2022-12-18T16:36:01;11.98;;;8.32;;
51921;SDS011;37948;53.260;6.394;2022-12-18T16:38:26;14.20;;;8.52;;
51921;SDS011;37948;53.260;6.394;2022-12-18T16:40:52;14.05;;;8.45;;